CYYE

Fort Nelson Airport

Fort Nelson, British Columbia, Canada
METAR CYYE 230100Z VRB02KT 20SM FEW150 SCT250 00/M04 A2979 RMK AC2CI2 SLP113
Observed Flight Rules
Oct-23 @ 01:00 UTC (14 minutes ago) Visual Flight Rules
Wind Visibility Clouds
Variable at 2 knots 20 miles
  • Few at 15,000' AGL
  • Scattered at 25,000' AGL
Temperatures Readings
Current 0°C / 32°F
Dewpoint -4°C / 25°F
Humidity 75%
Altimeter 29.79" Hg
Pressure 1011.3 hPa
Elevation 382
METAR CYYE 230100Z VRB02KT 20SM FEW150 SCT250 00/M04 A2979 RMK AC2CI2 SLP113
Observed Flight Rules
Oct-23 @ 01:00 UTC
(14 minutes ago)
VFR
Wind Visibility
Variable at 2 knots 20 miles
Clouds
  • Few at 15,000' AGL
  • Scattered at 25,000' AGL
Temperature Dewpoint
0°C / 32°F -4°C / 25°F
Humidity Altimeter Pressure
75% 29.79" Hg 1011.3 hPa